createdAt,value
2017-11-09T00:00:56.890Z,8.20
2017-11-09T00:03:24.339Z,8.20
2017-11-09T00:05:57.536Z,8.20
2017-11-09T00:08:24.995Z,8.20
2017-11-09T00:10:52.448Z,8.20
2017-11-09T00:13:20.018Z,8.20
2017-11-09T00:15:48.139Z,8.20
2017-11-09T00:18:15.591Z,8.20
2017-11-09T00:20:43.105Z,8.20
2017-11-09T00:23:10.559Z,8.20
2017-11-09T00:25:38.239Z,8.20
2017-11-09T00:28:05.699Z,8.20
2017-11-09T00:30:33.939Z,8.20
2017-11-09T00:33:01.399Z,8.20
2017-11-09T00:35:28.851Z,8.20
2017-11-09T00:37:56.312Z,8.20
2017-11-09T00:40:23.883Z,8.20
2017-11-09T00:42:52.066Z,8.20
2017-11-09T00:45:20.347Z,8.20
2017-11-09T00:47:47.796Z,8.20
2017-11-09T00:50:15.257Z,8.20
2017-11-09T00:52:43.330Z,8.20
2017-11-09T00:55:10.775Z,8.10
2017-11-09T00:57:38.242Z,8.10
2017-11-09T01:00:05.695Z,8.00
2017-11-09T01:02:34.781Z,8.00
2017-11-09T01:05:02.254Z,8.00
2017-11-09T01:07:29.706Z,8.00
2017-11-09T01:09:57.251Z,8.10
2017-11-09T01:12:24.711Z,8.10
2017-11-09T01:14:52.169Z,8.10
2017-11-09T01:17:20.419Z,8.00
2017-11-09T01:19:47.895Z,8.10
2017-11-09T01:22:15.341Z,8.10
2017-11-09T01:24:43.443Z,8.10
2017-11-09T01:27:12.115Z,8.10
2017-11-09T01:29:39.663Z,8.10
2017-11-09T01:32:07.228Z,8.10
2017-11-09T01:34:35.462Z,8.10
2017-11-09T01:37:02.919Z,8.10
2017-11-09T01:39:30.418Z,8.10
2017-11-09T01:41:58.681Z,8.10
2017-11-09T01:44:26.148Z,8.10
2017-11-09T01:46:53.742Z,8.10
2017-11-09T01:49:21.210Z,8.10
2017-11-09T01:51:48.732Z,8.10
2017-11-09T01:54:16.948Z,8.00
2017-11-09T01:56:44.454Z,8.00
2017-11-09T01:59:12.688Z,8.00
2017-11-09T02:01:40.157Z,8.00
2017-11-09T02:04:07.642Z,8.00
2017-11-09T02:06:35.105Z,8.00
2017-11-09T02:09:02.659Z,8.00
2017-11-09T02:11:30.129Z,8.00
2017-11-09T02:13:58.182Z,8.00
2017-11-09T02:16:25.647Z,8.00
2017-11-09T02:18:53.200Z,8.00
2017-11-09T02:21:20.652Z,8.00
2017-11-09T02:23:48.106Z,8.00
2017-11-09T02:26:15.571Z,8.00
2017-11-09T02:28:43.031Z,8.00
2017-11-09T02:31:10.483Z,8.00
2017-11-09T02:33:37.947Z,7.90
2017-11-09T02:36:05.403Z,7.90
2017-11-09T02:38:32.954Z,7.90
2017-11-09T02:41:00.440Z,7.90
2017-11-09T02:43:27.886Z,7.90
2017-11-09T02:45:55.338Z,7.90
2017-11-09T02:48:23.660Z,7.80
2017-11-09T02:50:51.171Z,7.80
2017-11-09T02:53:18.714Z,7.90
2017-11-09T02:55:46.187Z,7.90
2017-11-09T02:58:13.644Z,7.90
2017-11-09T03:00:41.099Z,7.80
2017-11-09T03:03:08.562Z,7.80
2017-11-09T03:05:36.820Z,7.80
2017-11-09T03:08:04.271Z,7.80
2017-11-09T03:10:32.511Z,7.80
2017-11-09T03:12:59.974Z,7.80
2017-11-09T03:15:27.426Z,7.80
2017-11-09T03:17:54.899Z,7.70
2017-11-09T03:20:22.361Z,7.80
2017-11-09T03:22:49.822Z,7.80
2017-11-09T03:25:17.286Z,7.80
2017-11-09T03:27:44.731Z,7.70
2017-11-09T03:30:12.318Z,7.70
2017-11-09T03:32:40.171Z,7.70
2017-11-09T03:35:07.640Z,7.70
2017-11-09T03:37:35.091Z,7.80
2017-11-09T03:40:02.561Z,7.70
2017-11-09T03:42:30.012Z,7.70
2017-11-09T03:44:58.255Z,7.70
2017-11-09T03:47:25.727Z,7.80
2017-11-09T03:49:53.179Z,7.80
2017-11-09T03:52:20.649Z,7.70
2017-11-09T03:54:48.107Z,7.70
2017-11-09T03:57:16.339Z,7.70
2017-11-09T03:59:43.795Z,7.70
2017-11-09T04:02:11.278Z,7.70
2017-11-09T04:04:38.743Z,7.70
2017-11-09T04:07:06.203Z,7.70
2017-11-09T04:09:34.084Z,7.70
2017-11-09T04:12:02.316Z,7.70
2017-11-09T04:14:29.763Z,7.70
2017-11-09T04:16:57.225Z,7.70
2017-11-09T04:19:24.674Z,7.70
2017-11-09T04:21:52.180Z,7.70
2017-11-09T04:24:19.709Z,7.70
2017-11-09T04:26:47.196Z,7.70
2017-11-09T04:29:14.750Z,7.70
2017-11-09T04:31:43.016Z,7.70
2017-11-09T04:34:10.489Z,7.70
2017-11-09T04:36:38.727Z,7.70
2017-11-09T04:39:06.217Z,7.70
2017-11-09T04:41:33.685Z,7.80
2017-11-09T04:44:01.913Z,7.80
2017-11-09T04:46:29.418Z,7.80
2017-11-09T04:48:56.896Z,7.80
2017-11-09T04:51:24.353Z,7.80
2017-11-09T04:53:52.528Z,7.70
2017-11-09T04:56:20.646Z,7.70
2017-11-09T04:58:48.137Z,7.70
2017-11-09T05:01:16.395Z,7.70
2017-11-09T05:03:43.888Z,7.70
2017-11-09T05:06:11.421Z,7.70
2017-11-09T05:08:38.901Z,7.70
2017-11-09T05:11:06.891Z,7.70
2017-11-09T05:13:34.354Z,7.60
2017-11-09T05:16:01.833Z,7.70
2017-11-09T05:18:29.361Z,7.70
2017-11-09T05:20:56.820Z,7.70
2017-11-09T05:23:24.293Z,7.60
2017-11-09T05:25:51.752Z,7.70
2017-11-09T05:28:19.225Z,7.60
2017-11-09T05:30:46.710Z,7.60
2017-11-09T05:33:14.941Z,7.60
2017-11-09T05:35:42.413Z,7.60
2017-11-09T05:38:10.696Z,7.60
2017-11-09T05:40:39.665Z,7.60
2017-11-09T05:43:07.143Z,7.60
2017-11-09T05:45:34.626Z,7.60
2017-11-09T05:48:02.869Z,7.60
2017-11-09T05:50:30.332Z,7.60
2017-11-09T05:52:57.901Z,7.60
2017-11-09T05:55:25.373Z,7.60
2017-11-09T05:57:53.609Z,7.60
2017-11-09T06:00:21.084Z,7.60
2017-11-09T06:02:48.549Z,7.70
2017-11-09T06:05:16.009Z,7.60
2017-11-09T06:07:43.561Z,7.70
2017-11-09T06:10:11.025Z,7.70
2017-11-09T06:12:38.587Z,7.70
2017-11-09T06:15:06.833Z,7.60
2017-11-09T06:17:34.314Z,7.60
2017-11-09T06:20:02.549Z,7.60
2017-11-09T06:22:30.044Z,7.60
2017-11-09T06:24:57.505Z,7.60
2017-11-09T06:27:25.732Z,7.60
2017-11-09T06:29:53.216Z,7.60
2017-11-09T06:32:21.444Z,7.60
2017-11-09T06:34:48.917Z,7.50
2017-11-09T06:37:16.385Z,7.60
2017-11-09T06:39:43.877Z,7.60
2017-11-09T06:42:11.432Z,7.60
2017-11-09T06:44:38.933Z,7.60
2017-11-09T06:47:06.448Z,7.60
2017-11-09T06:49:34.695Z,7.60
2017-11-09T06:52:02.174Z,7.60
2017-11-09T06:54:29.640Z,7.60
2017-11-09T06:56:57.099Z,7.60
2017-11-09T06:59:25.361Z,7.70
2017-11-09T07:01:52.825Z,7.60
2017-11-09T07:04:20.280Z,7.70
2017-11-09T07:06:47.834Z,7.70
2017-11-09T07:09:15.396Z,7.70
2017-11-09T07:11:42.965Z,7.70
2017-11-09T07:14:11.335Z,7.60
2017-11-09T07:16:39.113Z,7.60
2017-11-09T07:19:07.340Z,7.60
2017-11-09T07:21:34.929Z,7.60
2017-11-09T07:24:02.488Z,7.60
2017-11-09T07:26:29.965Z,7.60
2017-11-09T07:28:58.206Z,7.60
2017-11-09T07:31:25.661Z,7.60
2017-11-09T07:33:53.125Z,7.60
2017-11-09T07:36:20.613Z,7.60
2017-11-09T07:38:48.871Z,7.60
2017-11-09T07:41:16.349Z,7.60
2017-11-09T07:43:44.615Z,7.60
2017-11-09T07:46:12.852Z,7.60
2017-11-09T07:48:40.324Z,7.60
2017-11-09T07:51:07.795Z,7.60
2017-11-09T07:53:35.281Z,7.70
2017-11-09T07:56:02.856Z,7.70
2017-11-09T07:58:30.337Z,7.70
2017-11-09T08:00:57.841Z,7.70
2017-11-09T08:03:26.068Z,7.80
2017-11-09T08:05:53.547Z,7.80
2017-11-09T08:08:21.027Z,7.90
2017-11-09T08:10:49.248Z,7.90
2017-11-09T08:13:16.738Z,7.90
2017-11-09T08:15:45.036Z,8.00
2017-11-09T08:18:13.272Z,8.00
2017-11-09T08:20:40.745Z,8.00
2017-11-09T08:23:08.217Z,8.00
2017-11-09T08:25:38.665Z,8.10
2017-11-09T08:28:09.856Z,8.10
2017-11-09T08:30:39.108Z,8.10
2017-11-09T08:33:08.601Z,8.10
2017-11-09T08:35:36.836Z,8.20
2017-11-09T08:38:04.299Z,8.20
2017-11-09T08:40:31.768Z,8.30
2017-11-09T08:42:59.521Z,8.40
2017-11-09T08:45:27.760Z,8.50
2017-11-09T08:47:55.264Z,8.50
2017-11-09T08:50:22.741Z,8.60
2017-11-09T08:52:50.996Z,8.70
2017-11-09T08:55:18.466Z,8.70
2017-11-09T08:57:45.998Z,8.70
2017-11-09T09:00:13.568Z,8.70
2017-11-09T09:02:41.127Z,8.80
2017-11-09T09:05:08.605Z,8.90
2017-11-09T09:07:36.844Z,8.90
2017-11-09T09:10:04.324Z,8.90
2017-11-09T09:12:32.587Z,8.90
2017-11-09T09:15:00.777Z,8.80
2017-11-09T09:17:29.024Z,8.80
2017-11-09T09:19:57.010Z,8.80
2017-11-09T09:22:25.828Z,8.80
2017-11-09T09:24:54.197Z,8.80
2017-11-09T09:27:28.048Z,8.80
2017-11-09T09:30:10.405Z,8.80
2017-11-09T09:32:39.619Z,8.90
2017-11-09T09:38:16.891Z,9.00
2017-11-09T09:40:47.355Z,9.10
2017-11-09T09:43:14.822Z,9.20
2017-11-09T09:45:42.288Z,9.30
2017-11-09T09:48:09.781Z,9.40
2017-11-09T09:50:37.248Z,9.60
2017-11-09T09:53:04.717Z,9.60
2017-11-09T09:55:32.961Z,9.70
2017-11-09T09:58:00.421Z,9.70
2017-11-09T10:00:27.887Z,9.70
2017-11-09T10:02:55.522Z,9.80
2017-11-09T10:05:22.977Z,9.80
2017-11-09T10:07:50.437Z,9.90
2017-11-09T10:10:17.925Z,9.90
2017-11-09T10:12:45.390Z,10.00
2017-11-09T10:15:13.644Z,10.10
2017-11-09T10:17:41.109Z,10.10
2017-11-09T10:20:08.665Z,10.20
2017-11-09T10:22:36.490Z,10.30
2017-11-09T10:25:03.949Z,10.40
2017-11-09T10:27:31.446Z,10.50
2017-11-09T10:29:58.937Z,10.50
2017-11-09T10:32:33.609Z,10.60
2017-11-09T10:35:07.669Z,10.60
2017-11-09T10:37:35.896Z,10.60
2017-11-09T10:40:03.372Z,10.60
2017-11-09T10:42:30.864Z,10.50
2017-11-09T10:44:58.390Z,10.40
2017-11-09T10:47:26.621Z,11.10
2017-11-09T10:49:54.101Z,11.00
2017-11-09T10:52:21.576Z,11.70
2017-11-09T10:54:49.137Z,12.20
2017-11-09T10:57:16.623Z,12.70
2017-11-09T10:59:44.097Z,13.20
2017-11-09T11:02:11.571Z,13.50
2017-11-09T11:04:39.064Z,13.80
2017-11-09T11:07:06.540Z,14.00
2017-11-09T11:09:34.785Z,14.20
2017-11-09T11:12:02.241Z,14.10
2017-11-09T11:14:29.816Z,14.20
2017-11-09T11:16:57.281Z,14.00
2017-11-09T11:19:25.541Z,13.20
2017-11-09T11:21:53.104Z,13.20
2017-11-09T11:24:20.584Z,12.90
2017-11-09T11:26:48.845Z,12.50
2017-11-09T11:29:16.325Z,12.50
2017-11-09T11:31:43.801Z,12.40
2017-11-09T11:34:11.271Z,12.40
2017-11-09T11:36:38.768Z,12.50
2017-11-09T11:39:06.330Z,12.60
2017-11-09T11:41:33.894Z,12.60
2017-11-09T11:44:02.142Z,12.80
2017-11-09T11:46:29.612Z,12.80
2017-11-09T11:48:57.178Z,12.90
2017-11-09T11:51:25.433Z,13.00
2017-11-09T11:53:52.908Z,13.00
2017-11-09T11:56:20.376Z,12.90
2017-11-09T11:58:48.624Z,13.00
2017-11-09T12:01:16.110Z,12.90
2017-11-09T12:03:46.980Z,12.80
2017-11-09T12:06:14.492Z,12.70
2017-11-09T12:08:41.951Z,12.60
2017-11-09T12:11:09.420Z,12.60
2017-11-09T12:13:37.689Z,12.80
2017-11-09T12:16:05.916Z,12.70
2017-11-09T12:18:33.413Z,12.70
2017-11-09T12:21:00.970Z,12.80
2017-11-09T12:23:28.529Z,12.80
2017-11-09T12:25:55.988Z,13.00
2017-11-09T12:28:24.357Z,13.00
2017-11-09T12:30:52.588Z,13.00
2017-11-09T12:33:20.144Z,13.00
2017-11-09T12:35:47.652Z,13.00
2017-11-09T12:38:15.212Z,13.20
2017-11-09T12:40:42.661Z,13.30
2017-11-09T12:43:10.134Z,13.40
2017-11-09T12:45:38.907Z,13.30
2017-11-09T12:48:06.377Z,13.30
2017-11-09T12:50:33.989Z,13.30
2017-11-09T12:53:01.465Z,13.30
2017-11-09T12:55:28.937Z,13.10
2017-11-09T12:57:56.758Z,12.90
2017-11-09T13:00:24.276Z,12.90
2017-11-09T13:02:52.525Z,12.70
2017-11-09T13:05:20.008Z,12.60
2017-11-09T13:07:48.233Z,12.60
2017-11-09T13:10:15.708Z,12.60
2017-11-09T13:12:43.180Z,12.60
2017-11-09T13:15:10.645Z,12.60
2017-11-09T13:17:38.893Z,12.60
2017-11-09T13:20:06.364Z,12.60
2017-11-09T13:22:33.985Z,12.50
2017-11-09T13:25:01.448Z,12.50
2017-11-09T13:27:28.929Z,12.40
2017-11-09T13:29:56.413Z,12.30
2017-11-09T13:32:23.873Z,12.30
2017-11-09T13:34:52.120Z,12.20
2017-11-09T13:37:19.609Z,12.20
2017-11-09T13:39:47.852Z,12.20
2017-11-09T13:42:15.377Z,12.20
2017-11-09T13:44:42.889Z,12.20
2017-11-09T13:47:10.364Z,12.20
2017-11-09T13:49:38.606Z,12.00
2017-11-09T13:52:07.616Z,11.90
2017-11-09T13:54:35.844Z,11.70
2017-11-09T13:57:03.329Z,11.70
2017-11-09T13:59:30.793Z,11.60
2017-11-09T14:01:59.784Z,11.50
2017-11-09T14:04:27.341Z,11.60
2017-11-09T14:06:54.903Z,11.40
2017-11-09T14:09:22.464Z,11.30
2017-11-09T14:11:49.955Z,11.20
2017-11-09T14:14:18.179Z,11.20
2017-11-09T14:16:45.652Z,11.20
2017-11-09T14:19:13.131Z,11.10
2017-11-09T14:21:41.376Z,11.10
2017-11-09T14:24:08.828Z,11.10
2017-11-09T14:26:36.309Z,11.10
2017-11-09T14:29:03.765Z,11.10
2017-11-09T14:31:31.245Z,11.10
2017-11-09T14:33:58.706Z,11.10
2017-11-09T14:36:26.224Z,11.00
2017-11-09T14:38:53.700Z,10.90
2017-11-09T14:41:21.937Z,10.70
2017-11-09T14:43:49.512Z,10.70
2017-11-09T14:46:16.985Z,10.70
2017-11-09T14:48:44.440Z,10.70
2017-11-09T14:51:12.676Z,10.50
2017-11-09T14:53:41.056Z,10.50
2017-11-09T14:56:08.525Z,10.40
2017-11-09T14:58:36.139Z,10.40
2017-11-09T15:01:03.660Z,10.40
2017-11-09T15:03:31.129Z,10.30
2017-11-09T15:05:59.396Z,10.30
2017-11-09T15:08:26.866Z,10.20
2017-11-09T15:10:55.093Z,10.30
2017-11-09T15:13:22.565Z,10.20
2017-11-09T15:15:54.852Z,10.20
2017-11-09T15:18:22.405Z,10.30
2017-11-09T15:20:51.381Z,10.30
2017-11-09T15:23:18.856Z,10.30
2017-11-09T15:25:46.317Z,10.20
2017-11-09T15:28:14.549Z,10.20
2017-11-09T15:30:42.032Z,10.20
2017-11-09T15:33:09.492Z,10.20
2017-11-09T15:35:36.960Z,10.10
2017-11-09T15:38:04.511Z,10.10
2017-11-09T15:40:31.974Z,10.10
2017-11-09T15:42:59.434Z,10.10
2017-11-09T15:45:26.912Z,10.10
2017-11-09T15:47:55.155Z,10.10
2017-11-09T15:50:22.627Z,10.00
2017-11-09T15:52:51.609Z,10.00
2017-11-09T15:55:19.929Z,10.00
2017-11-09T15:57:47.385Z,10.00
2017-11-09T16:00:15.069Z,10.00
2017-11-09T16:02:42.558Z,10.00
2017-11-09T16:05:10.845Z,9.90
2017-11-09T16:07:39.244Z,9.90
2017-11-09T16:10:07.472Z,9.80
2017-11-09T16:12:35.083Z,9.80
2017-11-09T16:15:03.331Z,9.80
2017-11-09T16:17:30.796Z,9.80
2017-11-09T16:19:59.051Z,9.80
2017-11-09T16:22:26.612Z,9.70
2017-11-09T16:24:54.850Z,9.70
2017-11-09T16:27:23.185Z,9.60
2017-11-09T16:29:51.451Z,9.60
2017-11-09T16:32:18.918Z,9.60
2017-11-09T16:34:47.157Z,9.60
2017-11-09T16:37:14.620Z,9.60
2017-11-09T16:39:42.860Z,9.60
2017-11-09T16:42:10.374Z,9.50
2017-11-09T16:44:38.606Z,9.50
2017-11-09T16:47:06.053Z,9.50
2017-11-09T16:49:33.529Z,9.50
2017-11-09T16:52:01.065Z,9.60
2017-11-09T16:54:28.568Z,9.60
2017-11-09T16:56:57.561Z,9.50
2017-11-09T16:59:25.093Z,9.50
2017-11-09T17:01:52.584Z,9.60
2017-11-09T17:04:20.829Z,9.50
2017-11-09T17:06:48.301Z,9.50
2017-11-09T17:09:16.589Z,9.60
2017-11-09T17:11:44.823Z,9.60
2017-11-09T17:14:12.304Z,9.60
2017-11-09T17:16:39.773Z,9.70
2017-11-09T17:19:10.087Z,9.70
2017-11-09T17:21:37.656Z,9.60
2017-11-09T17:24:05.220Z,9.70
2017-11-09T17:26:32.726Z,9.70
2017-11-09T17:29:00.969Z,9.70
2017-11-09T17:31:29.835Z,9.70
2017-11-09T17:33:57.400Z,9.70
2017-11-09T17:36:24.965Z,9.70
2017-11-09T17:38:52.518Z,9.70
2017-11-09T17:41:20.076Z,9.70
2017-11-09T17:43:48.774Z,9.70
2017-11-09T17:46:17.059Z,9.60
2017-11-09T17:48:45.329Z,9.60
2017-11-09T17:51:13.569Z,9.60
2017-11-09T17:53:41.053Z,9.60
2017-11-09T17:56:09.310Z,9.60
2017-11-09T17:58:37.577Z,9.60
2017-11-09T18:01:05.051Z,9.60
2017-11-09T18:03:36.154Z,9.50
2017-11-09T18:06:03.625Z,9.50
2017-11-09T18:08:31.105Z,9.50
2017-11-09T18:10:58.684Z,9.50
2017-11-09T18:13:26.923Z,9.40
2017-11-09T18:15:54.396Z,9.40
2017-11-09T18:18:21.956Z,9.50
2017-11-09T18:20:49.432Z,9.50
2017-11-09T18:23:21.681Z,9.50
2017-11-09T18:25:49.152Z,9.50
2017-11-09T18:28:17.729Z,9.50
2017-11-09T18:30:45.280Z,9.50
2017-11-09T18:33:12.747Z,9.50
2017-11-09T18:35:40.994Z,9.50
2017-11-09T18:38:08.464Z,9.50
2017-11-09T18:40:35.928Z,9.60
2017-11-09T18:43:03.400Z,9.60
2017-11-09T18:45:31.641Z,9.60
2017-11-09T18:47:59.212Z,9.60
2017-11-09T18:50:26.774Z,9.60
2017-11-09T18:52:54.364Z,9.70
2017-11-09T18:55:21.857Z,9.70
2017-11-09T18:57:49.344Z,9.70
2017-11-09T19:00:17.356Z,9.70
2017-11-09T19:02:47.291Z,9.70
2017-11-09T19:05:14.765Z,9.70
2017-11-09T19:07:42.262Z,9.70
2017-11-09T19:10:10.497Z,9.80
2017-11-09T19:12:37.965Z,9.80
2017-11-09T19:15:05.540Z,9.80
2017-11-09T19:17:33.824Z,9.80
2017-11-09T19:20:01.280Z,9.80
2017-11-09T19:22:30.576Z,9.90
2017-11-09T19:25:01.033Z,9.80
2017-11-09T19:27:29.257Z,9.90
2017-11-09T19:29:56.731Z,9.90
2017-11-09T19:32:25.022Z,9.90
2017-11-09T19:34:53.274Z,9.90
2017-11-09T19:37:20.748Z,9.90
2017-11-09T19:39:48.225Z,10.00
2017-11-09T19:42:16.472Z,10.00
2017-11-09T19:44:43.949Z,10.00
2017-11-09T19:47:12.189Z,10.00
2017-11-09T19:49:40.480Z,10.00
2017-11-09T19:52:07.951Z,10.00
2017-11-09T19:54:36.212Z,10.00
2017-11-09T19:57:03.765Z,10.00
2017-11-09T19:59:31.257Z,10.00
2017-11-09T20:01:58.736Z,10.00
2017-11-09T20:04:27.017Z,10.10
2017-11-09T20:06:54.476Z,10.10
2017-11-09T20:09:21.954Z,10.20
2017-11-09T20:11:49.416Z,10.20
2017-11-09T20:14:17.819Z,10.20
2017-11-09T20:16:46.071Z,10.30
2017-11-09T20:19:14.184Z,10.20
2017-11-09T20:21:41.717Z,10.30
2017-11-09T20:24:09.633Z,10.30
2017-11-09T20:26:37.102Z,10.30
2017-11-09T20:29:04.569Z,10.30
2017-11-09T20:31:32.080Z,10.40
2017-11-09T20:34:00.309Z,10.40
2017-11-09T20:36:27.879Z,10.40
2017-11-09T20:38:55.373Z,10.40
2017-11-09T20:41:23.600Z,10.40
2017-11-09T20:43:51.091Z,10.30
2017-11-09T20:46:18.571Z,10.40
2017-11-09T20:48:46.041Z,10.40
2017-11-09T20:51:13.825Z,10.40
2017-11-09T20:53:41.329Z,10.40
2017-11-09T20:56:11.476Z,10.40
2017-11-09T20:58:39.293Z,10.40
2017-11-09T21:01:09.746Z,10.40
2017-11-09T21:03:38.811Z,10.50
2017-11-09T21:06:06.300Z,10.50
2017-11-09T21:08:34.557Z,10.50
2017-11-09T21:11:02.844Z,10.40
2017-11-09T21:13:30.364Z,10.40
2017-11-09T21:15:58.761Z,10.50
2017-11-09T21:18:26.956Z,10.50
2017-11-09T21:20:55.186Z,10.50
2017-11-09T21:23:22.668Z,10.50
2017-11-09T21:25:50.144Z,10.50
2017-11-09T21:28:18.379Z,10.50
2017-11-09T21:30:45.864Z,10.50
2017-11-09T21:33:14.488Z,10.50
2017-11-09T21:35:42.772Z,10.50
2017-11-09T21:38:10.260Z,10.50
2017-11-09T21:40:37.724Z,10.50
2017-11-09T21:43:05.286Z,10.50
2017-11-09T21:45:32.764Z,10.50
2017-11-09T21:48:00.303Z,10.60
2017-11-09T21:50:28.548Z,10.60
2017-11-09T21:52:56.026Z,10.60
2017-11-09T21:55:23.615Z,10.60
2017-11-09T21:57:51.840Z,10.60
2017-11-09T22:00:19.429Z,10.60
2017-11-09T22:02:46.937Z,10.60
2017-11-09T22:05:14.416Z,10.60
2017-11-09T22:07:41.886Z,10.70
2017-11-09T22:10:09.509Z,10.60
2017-11-09T22:12:37.009Z,10.70
2017-11-09T22:15:04.573Z,10.70
2017-11-09T22:17:32.041Z,10.70
2017-11-09T22:19:59.609Z,10.70
2017-11-09T22:22:27.863Z,10.70
2017-11-09T22:24:55.333Z,10.70
2017-11-09T22:27:23.575Z,10.80
2017-11-09T22:29:51.373Z,10.80
2017-11-09T22:32:18.848Z,10.80
2017-11-09T22:34:46.312Z,10.90
2017-11-09T22:37:13.778Z,10.90
2017-11-09T22:39:41.261Z,10.90
2017-11-09T22:42:08.755Z,10.90
2017-11-09T22:44:36.990Z,10.80
2017-11-09T22:47:04.464Z,10.80
2017-11-09T22:49:32.046Z,10.90
2017-11-09T22:51:59.508Z,10.80
2017-11-09T22:54:27.760Z,10.80
2017-11-09T22:56:55.237Z,10.80
2017-11-09T22:59:23.496Z,10.80
2017-11-09T23:01:50.979Z,10.80
2017-11-09T23:04:19.220Z,10.80
2017-11-09T23:06:46.688Z,10.80
2017-11-09T23:09:14.262Z,10.80
2017-11-09T23:11:42.513Z,10.90
2017-11-09T23:14:09.977Z,10.90
2017-11-09T23:16:38.157Z,10.80
2017-11-09T23:19:05.721Z,10.80
2017-11-09T23:21:33.219Z,10.70
2017-11-09T23:24:00.736Z,10.70
2017-11-09T23:26:28.293Z,10.70
2017-11-09T23:28:57.379Z,10.70
2017-11-09T23:31:24.854Z,10.70
2017-11-09T23:33:53.170Z,10.60
2017-11-09T23:36:20.656Z,10.70
2017-11-09T23:38:48.135Z,10.60
2017-11-09T23:41:15.593Z,10.60
2017-11-09T23:43:43.856Z,10.60
2017-11-09T23:46:11.315Z,10.50
2017-11-09T23:48:38.793Z,10.60
2017-11-09T23:51:07.056Z,10.70
2017-11-09T23:53:34.528Z,10.60
2017-11-09T23:56:02.772Z,10.70
2017-11-09T23:58:30.256Z,10.70
